ZCO weather

La Araucanía Airport
Temuco, Araucanía Region, Chile

Public forecast

Using degrees Celsius for public forecast. Weather courtesy of forecast.io.

Current aviation weather report (METAR) for La Araucanía Airport

Retrieved 2020/02/27 13:00 UTC (57 minutes ago):

SCQP 271300Z VRB03KT 9999 SCT020 17/13 Q1017

Aviation forecast (TAF) for La Araucanía Airport

Retrieved 2020/02/27 12:00 UTC (2 hours ago):

TAF COR SCQP 271028Z 2712/2812 VRB02KT CAVOK TN09/2712Z TX26/2720Z BECMG 2713/2715 20010KT BECMG 2801/2803 24003KT